• Join FlightAware (Why Join?)
  • Login
  • US Flag 
12:30PM EDT


 

Airport Tracker/Info


-or-


 

Live Flight TrackerFlight Track Log ✈ WBR2634 ✈ 10-Jun-2013 ✈ KBRL - KORD

Flight Track Log - Related Links

Times and Time Zones

All times are in EDT time to prevent confusion due to time zone crossing. See the WBR2634 flight status page for this flight to view local times or setup timezone preferences in your user account.

Time Position Orientation Groundspeed Altitude Reporting Facility
EDT Latitude Longitude Course Direction KTS MPH feet Rate Location/Type
05:47PM 40.8197 -91.1178 66° East 93 107 2,600  Level Chicago Center
05:48PM 40.8328 -91.0817 64° Northeast 108 124 3,600 900 Climbing Chicago Center
05:49PM 40.8467 -91.0417 65° Northeast 114 131 4,500 840 Climbing Chicago Center
05:50PM 40.8343 -90.8630 72° East  Level FlightAware Approximate
05:50PM 40.8603 -91.0025 65° Northeast 117 135 5,400  Level Chicago Center
05:51PM 40.8676 -90.8315 36° Northeast  Level FlightAware Approximate
05:52PM 40.8855 -90.7791 57° Northeast  Level FlightAware Approximate
05:52PM 40.8733 -90.9600 68° East 122 140 6,100  Level Chicago Center
05:53PM 40.9059 -90.7323 66° East  Level FlightAware Approximate
05:53PM 40.8883 -90.9164 66° East 127 146 6,900  Level Chicago Center
05:54PM 40.9075 -90.8647 64° Northeast 130 150 7,900 780 Climbing Chicago Center
05:55PM 40.9211 -90.8206 68° East 131 151 8,600 540 Climbing Chicago Center
05:56PM 40.9342 -90.7778 68° East 127 146 9,100 180 Climbing Chicago Center
05:57PM 40.9481 -90.7331 68° East 130 150 9,000 -60 Descending Chicago Center
05:58PM 40.9661 -90.6842 64° Northeast 142 163 9,000  Level Chicago Center
05:59PM 40.9825 -90.6331 67° East 150 173 9,000  Level Chicago Center
06:00PM 41.0056 -90.5717 64° Northeast 155 178 9,000  Level Chicago Center
06:01PM 41.0228 -90.5197 66° East 154 177 9,000  Level Chicago Center
06:02PM 41.0383 -90.4683 68° East 151 174 9,000  Level Chicago Center
06:03PM 41.0567 -90.4153 65° Northeast 157 181 9,100  Climbing Chicago Center
06:04PM 41.0736 -90.3647 66° East 151 174 9,000  Descending Chicago Center
06:05PM 41.0911 -90.3114 66° East 156 180 9,100  Climbing Chicago Center
06:06PM 41.1117 -90.2486 66° East 155 178 9,000 -60 Descending Chicago Center
06:07PM 41.1294 -90.1953 66° East 156 180 9,000  Level Chicago Center
06:08PM 41.1461 -90.1425 67° East 155 178 9,100  Climbing Chicago Center
06:09PM 41.1625 -90.0892 68° East 155 178 9,100  Level Chicago Center
06:10PM 41.1803 -90.0344 67° East 160 184 9,100 -60 Level Chicago Center
06:11PM 41.1978 -89.9808 67° East 158 182 9,000  Descending Chicago Center
06:12PM 41.2125 -89.9247 71° East 160 184 9,100  Climbing Chicago Center
06:13PM 41.2322 -89.8586 68° East 160 184 9,100  Level Chicago Center
06:14PM 41.2497 -89.8047 67° East 160 184 9,100  Level Chicago Center
06:15PM 41.2669 -89.7494 67° East 161 185 9,100  Level Chicago Center
06:16PM 41.2828 -89.6944 69° East 160 184 9,100  Level Chicago Center
06:17PM 41.2989 -89.6378 69° East 162 186 9,100  Level Chicago Center
06:18PM 41.3156 -89.5814 69° East 163 188 9,100  Level Chicago Center
06:19PM 41.3358 -89.5128 68° East 165 190 9,100  Level Chicago Center
06:21PM 41.3528 -89.4569 68° East 164 189 9,100  Level Chicago Center
06:22PM 41.3703 -89.4011 67° East 163 188 9,100  Level Chicago Center
06:23PM 41.3858 -89.3494 68° East 154 177 9,100  Level Chicago Center
06:24PM 41.4017 -89.2958 68° East 155 178 9,200  Climbing Chicago Center
06:26PM 41.4364 -89.1789 68° East 160 184 9,100 -120 Descending Chicago Center
06:27PM 41.4544 -89.1258 66° East 160 184 9,000  Descending Chicago Center
06:28PM 41.4714 -89.0744 66° East 156 180 9,100  Climbing Chicago Center
06:29PM 41.4914 -89.0125 67° East 152 175 9,100  Level Chicago Center
06:30PM 41.5075 -88.9594 68° East 156 180 9,100  Level Chicago Center
06:31PM 41.5256 -88.9064 66° East 156 180 9,100 -180 Level Chicago Center
06:32PM 41.5425 -88.8517 68° East 159 183 8,800 -360 Descending Chicago Center
06:33PM 41.5592 -88.7953 68° East 164 189 8,400 -420 Descending Chicago Center
06:34PM 41.5806 -88.7306 66° East 159 183 8,000 -240 Descending Chicago Center
06:35PM 41.5964 -88.6781 68° East 154 177 8,000  Level Chicago Center
06:36PM 41.6086 -88.6208 74° East 159 183 8,000  Level Chicago Center
06:37PM 41.6297 -88.5733 59° Northeast 152 175 8,100  Climbing Chicago Center
06:38PM 41.6361 -88.5181 81° East 152 175 8,100  Level Chicago Center
06:39PM 41.6406 -88.4597 84° East 159 183 8,100  Level Chicago Center
06:40PM 41.6467 -88.3889 83° East 162 186 8,100 -60 Level Chicago Center
06:41PM 41.6814 -88.3672 25° Northeast 158 182 8,000 -360 Descending Chicago Center
06:42PM 41.7219 -88.3736 353° North 149 171 7,400 -480 Descending Chicago Center
06:43PM 41.7622 -88.3803 353° North 148 170 7,100 -180 Descending Chicago Center
06:44PM 41.8006 -88.3850 355° North 140 161 7,100  Level Chicago Center
06:45PM 41.8403 -88.3922 352° North 144 166 7,100 -300 Level Chicago Center
06:46PM 41.8894 -88.3814 North 159 183 6,600 -600 Descending Chicago Center
06:47PM 41.9308 -88.3603 21° North 162 186 5,900 -660 Descending Chicago Center
06:48PM 41.9703 -88.3269 32° Northeast 180 207 5,300 -540 Descending Chicago Center
06:49PM 41.9669 -88.2603 94° East 188 216 4,900 -420 Descending Chicago Center
06:50PM 41.9672 -88.1944 90° East 183 211 4,500 -660 Descending Chicago Center
06:52PM 41.9678 -88.1106 89° East 184 212 3,600 -1,020 Descending Chicago Center
06:52PM 41.9667 -88.0667 92° East 184 212 2,900 -1,080 Descending Chicago TRACON
06:53PM 41.9667 -88.0000 90° East 171 197 1,800 -960 Descending Chicago TRACON
06:54PM 41.9667 -87.9500 90° East 152 175 1,000 -900 Descending Chicago TRACON